sensor_id;sensor_type;location;lat;lon;timestamp;P1;durP1;ratioP1;P2;durP2;ratioP2
12441;SDS011;6285;48.804;9.220;2022-12-18T00:02:11;81.47;;;39.23;;
12441;SDS011;6285;48.804;9.220;2022-12-18T00:04:39;76.20;;;37.53;;
12441;SDS011;6285;48.804;9.220;2022-12-18T00:07:06;80.97;;;37.40;;
12441;SDS011;6285;48.804;9.220;2022-12-18T00:09:34;73.80;;;36.70;;
12441;SDS011;6285;48.804;9.220;2022-12-18T00:12:02;78.13;;;38.90;;
12441;SDS011;6285;48.804;9.220;2022-12-18T00:14:29;81.70;;;40.40;;
12441;SDS011;6285;48.804;9.220;2022-12-18T00:16:56;74.70;;;37.47;;
12441;SDS011;6285;48.804;9.220;2022-12-18T00:19:25;77.50;;;39.57;;
12441;SDS011;6285;48.804;9.220;2022-12-18T00:21:53;84.63;;;39.73;;
12441;SDS011;6285;48.804;9.220;2022-12-18T00:24:20;87.50;;;39.97;;
12441;SDS011;6285;48.804;9.220;2022-12-18T00:26:48;74.70;;;39.00;;
12441;SDS011;6285;48.804;9.220;2022-12-18T00:29:15;75.03;;;37.80;;
12441;SDS011;6285;48.804;9.220;2022-12-18T00:31:43;81.77;;;38.63;;
12441;SDS011;6285;48.804;9.220;2022-12-18T00:34:10;81.50;;;38.97;;
12441;SDS011;6285;48.804;9.220;2022-12-18T00:36:38;75.40;;;38.97;;
12441;SDS011;6285;48.804;9.220;2022-12-18T00:39:05;77.37;;;39.17;;
12441;SDS011;6285;48.804;9.220;2022-12-18T00:41:33;81.80;;;39.57;;
12441;SDS011;6285;48.804;9.220;2022-12-18T00:44:19;83.97;;;38.67;;
12441;SDS011;6285;48.804;9.220;2022-12-18T00:46:46;81.53;;;37.90;;
12441;SDS011;6285;48.804;9.220;2022-12-18T00:49:14;77.67;;;36.00;;
12441;SDS011;6285;48.804;9.220;2022-12-18T00:51:41;78.67;;;38.20;;
12441;SDS011;6285;48.804;9.220;2022-12-18T00:54:08;83.10;;;39.67;;
12441;SDS011;6285;48.804;9.220;2022-12-18T00:56:36;84.40;;;38.83;;
12441;SDS011;6285;48.804;9.220;2022-12-18T00:59:03;85.63;;;39.20;;
12441;SDS011;6285;48.804;9.220;2022-12-18T01:01:32;89.10;;;39.77;;
12441;SDS011;6285;48.804;9.220;2022-12-18T01:03:59;78.73;;;39.10;;
12441;SDS011;6285;48.804;9.220;2022-12-18T01:06:26;80.77;;;38.83;;
12441;SDS011;6285;48.804;9.220;2022-12-18T01:08:54;80.37;;;35.53;;
12441;SDS011;6285;48.804;9.220;2022-12-18T01:11:21;74.37;;;36.03;;
12441;SDS011;6285;48.804;9.220;2022-12-18T01:13:48;81.40;;;38.07;;
12441;SDS011;6285;48.804;9.220;2022-12-18T01:16:16;87.73;;;37.87;;
12441;SDS011;6285;48.804;9.220;2022-12-18T01:18:45;81.87;;;37.63;;
12441;SDS011;6285;48.804;9.220;2022-12-18T01:21:13;85.17;;;38.90;;
12441;SDS011;6285;48.804;9.220;2022-12-18T01:23:40;77.50;;;36.27;;
12441;SDS011;6285;48.804;9.220;2022-12-18T01:26:08;77.77;;;36.53;;
12441;SDS011;6285;48.804;9.220;2022-12-18T01:28:36;75.10;;;37.00;;
12441;SDS011;6285;48.804;9.220;2022-12-18T01:31:13;79.50;;;37.23;;
12441;SDS011;6285;48.804;9.220;2022-12-18T01:33:41;69.87;;;33.90;;
12441;SDS011;6285;48.804;9.220;2022-12-18T01:36:13;78.10;;;37.00;;
12441;SDS011;6285;48.804;9.220;2022-12-18T01:38:40;76.40;;;37.33;;
12441;SDS011;6285;48.804;9.220;2022-12-18T01:41:08;69.10;;;33.77;;
12441;SDS011;6285;48.804;9.220;2022-12-18T01:46:24;71.93;;;34.97;;
12441;SDS011;6285;48.804;9.220;2022-12-18T01:48:52;73.23;;;34.40;;
12441;SDS011;6285;48.804;9.220;2022-12-18T01:51:22;74.73;;;35.23;;
12441;SDS011;6285;48.804;9.220;2022-12-18T01:53:49;75.43;;;34.73;;
12441;SDS011;6285;48.804;9.220;2022-12-18T01:56:16;78.33;;;33.60;;
12441;SDS011;6285;48.804;9.220;2022-12-18T01:58:47;71.13;;;34.53;;
12441;SDS011;6285;48.804;9.220;2022-12-18T02:01:15;77.23;;;33.53;;
12441;SDS011;6285;48.804;9.220;2022-12-18T02:03:43;66.17;;;33.47;;
12441;SDS011;6285;48.804;9.220;2022-12-18T02:06:12;70.10;;;33.43;;
12441;SDS011;6285;48.804;9.220;2022-12-18T02:08:43;68.80;;;32.57;;
12441;SDS011;6285;48.804;9.220;2022-12-18T02:11:10;65.60;;;30.17;;
12441;SDS011;6285;48.804;9.220;2022-12-18T02:13:43;65.30;;;32.10;;
12441;SDS011;6285;48.804;9.220;2022-12-18T02:16:15;74.03;;;33.57;;
12441;SDS011;6285;48.804;9.220;2022-12-18T02:18:44;67.70;;;32.80;;
12441;SDS011;6285;48.804;9.220;2022-12-18T02:21:14;66.03;;;32.30;;
12441;SDS011;6285;48.804;9.220;2022-12-18T02:23:50;68.40;;;32.43;;
12441;SDS011;6285;48.804;9.220;2022-12-18T02:26:25;64.70;;;31.40;;
12441;SDS011;6285;48.804;9.220;2022-12-18T02:28:54;71.70;;;33.10;;
12441;SDS011;6285;48.804;9.220;2022-12-18T02:31:23;62.87;;;30.23;;
12441;SDS011;6285;48.804;9.220;2022-12-18T02:33:52;70.70;;;31.77;;
12441;SDS011;6285;48.804;9.220;2022-12-18T02:36:20;70.53;;;31.83;;
12441;SDS011;6285;48.804;9.220;2022-12-18T02:38:48;63.20;;;30.27;;
12441;SDS011;6285;48.804;9.220;2022-12-18T02:41:16;67.30;;;32.83;;
12441;SDS011;6285;48.804;9.220;2022-12-18T02:43:55;61.57;;;31.67;;
12441;SDS011;6285;48.804;9.220;2022-12-18T02:46:29;66.90;;;31.63;;
12441;SDS011;6285;48.804;9.220;2022-12-18T02:49:02;67.80;;;31.60;;
12441;SDS011;6285;48.804;9.220;2022-12-18T02:51:32;71.67;;;32.60;;
12441;SDS011;6285;48.804;9.220;2022-12-18T02:54:08;62.43;;;30.87;;
12441;SDS011;6285;48.804;9.220;2022-12-18T02:56:38;66.03;;;31.60;;
12441;SDS011;6285;48.804;9.220;2022-12-18T02:59:07;56.70;;;28.97;;
12441;SDS011;6285;48.804;9.220;2022-12-18T03:01:38;62.03;;;30.80;;
12441;SDS011;6285;48.804;9.220;2022-12-18T03:04:07;61.30;;;28.83;;
12441;SDS011;6285;48.804;9.220;2022-12-18T03:06:37;66.43;;;32.03;;
12441;SDS011;6285;48.804;9.220;2022-12-18T03:09:07;61.57;;;28.10;;
12441;SDS011;6285;48.804;9.220;2022-12-18T03:11:36;61.23;;;30.47;;
12441;SDS011;6285;48.804;9.220;2022-12-18T03:14:24;58.87;;;30.07;;
12441;SDS011;6285;48.804;9.220;2022-12-18T03:16:53;61.93;;;30.10;;
12441;SDS011;6285;48.804;9.220;2022-12-18T03:19:22;58.90;;;26.33;;
12441;SDS011;6285;48.804;9.220;2022-12-18T03:21:51;58.70;;;29.03;;
12441;SDS011;6285;48.804;9.220;2022-12-18T03:24:21;58.13;;;28.77;;
12441;SDS011;6285;48.804;9.220;2022-12-18T03:26:50;59.10;;;30.33;;
12441;SDS011;6285;48.804;9.220;2022-12-18T03:29:20;62.63;;;29.67;;
12441;SDS011;6285;48.804;9.220;2022-12-18T03:31:53;61.63;;;29.23;;
12441;SDS011;6285;48.804;9.220;2022-12-18T03:34:21;62.63;;;29.40;;
12441;SDS011;6285;48.804;9.220;2022-12-18T03:36:50;57.53;;;30.50;;
12441;SDS011;6285;48.804;9.220;2022-12-18T03:39:17;58.10;;;29.43;;
12441;SDS011;6285;48.804;9.220;2022-12-18T03:41:44;55.77;;;28.40;;
12441;SDS011;6285;48.804;9.220;2022-12-18T03:44:14;57.80;;;28.67;;
12441;SDS011;6285;48.804;9.220;2022-12-18T03:46:46;59.30;;;28.93;;
12441;SDS011;6285;48.804;9.220;2022-12-18T03:49:17;60.37;;;28.13;;
12441;SDS011;6285;48.804;9.220;2022-12-18T03:51:48;53.20;;;28.60;;
12441;SDS011;6285;48.804;9.220;2022-12-18T03:54:17;58.97;;;28.80;;
12441;SDS011;6285;48.804;9.220;2022-12-18T03:56:45;60.03;;;29.30;;
12441;SDS011;6285;48.804;9.220;2022-12-18T03:59:14;58.17;;;29.80;;
12441;SDS011;6285;48.804;9.220;2022-12-18T04:01:45;58.97;;;29.47;;
12441;SDS011;6285;48.804;9.220;2022-12-18T04:04:13;60.63;;;28.73;;
12441;SDS011;6285;48.804;9.220;2022-12-18T04:06:44;53.50;;;27.47;;
12441;SDS011;6285;48.804;9.220;2022-12-18T04:09:12;58.60;;;28.27;;
12441;SDS011;6285;48.804;9.220;2022-12-18T04:11:40;62.33;;;29.77;;
12441;SDS011;6285;48.804;9.220;2022-12-18T04:14:08;51.43;;;27.03;;
12441;SDS011;6285;48.804;9.220;2022-12-18T04:16:36;60.77;;;28.70;;
12441;SDS011;6285;48.804;9.220;2022-12-18T04:19:03;58.40;;;29.10;;
12441;SDS011;6285;48.804;9.220;2022-12-18T04:21:32;57.17;;;28.07;;
12441;SDS011;6285;48.804;9.220;2022-12-18T04:23:59;52.47;;;27.03;;
12441;SDS011;6285;48.804;9.220;2022-12-18T04:26:26;60.03;;;28.77;;
12441;SDS011;6285;48.804;9.220;2022-12-18T04:28:53;53.83;;;27.57;;
12441;SDS011;6285;48.804;9.220;2022-12-18T04:31:20;54.97;;;27.00;;
12441;SDS011;6285;48.804;9.220;2022-12-18T04:33:47;56.30;;;28.13;;
12441;SDS011;6285;48.804;9.220;2022-12-18T04:36:14;52.27;;;26.47;;
12441;SDS011;6285;48.804;9.220;2022-12-18T04:38:43;56.67;;;26.73;;
12441;SDS011;6285;48.804;9.220;2022-12-18T04:41:10;59.87;;;29.53;;
12441;SDS011;6285;48.804;9.220;2022-12-18T04:43:37;54.93;;;29.23;;
12441;SDS011;6285;48.804;9.220;2022-12-18T04:46:04;57.53;;;26.63;;
12441;SDS011;6285;48.804;9.220;2022-12-18T04:48:32;50.77;;;25.97;;
12441;SDS011;6285;48.804;9.220;2022-12-18T04:50:59;49.37;;;25.03;;
12441;SDS011;6285;48.804;9.220;2022-12-18T04:53:26;54.47;;;26.57;;
12441;SDS011;6285;48.804;9.220;2022-12-18T04:56:03;56.27;;;27.57;;
12441;SDS011;6285;48.804;9.220;2022-12-18T04:58:30;52.57;;;26.97;;
12441;SDS011;6285;48.804;9.220;2022-12-18T05:00:57;54.47;;;28.07;;
12441;SDS011;6285;48.804;9.220;2022-12-18T05:03:24;54.03;;;27.13;;
12441;SDS011;6285;48.804;9.220;2022-12-18T05:05:51;54.80;;;26.80;;
12441;SDS011;6285;48.804;9.220;2022-12-18T05:08:19;56.77;;;27.40;;
12441;SDS011;6285;48.804;9.220;2022-12-18T05:10:46;53.53;;;26.63;;
12441;SDS011;6285;48.804;9.220;2022-12-18T05:13:14;51.77;;;26.23;;
12441;SDS011;6285;48.804;9.220;2022-12-18T05:15:41;55.93;;;27.13;;
12441;SDS011;6285;48.804;9.220;2022-12-18T05:18:08;52.43;;;26.60;;
12441;SDS011;6285;48.804;9.220;2022-12-18T05:20:36;59.07;;;26.70;;
12441;SDS011;6285;48.804;9.220;2022-12-18T05:23:03;51.20;;;27.13;;
12441;SDS011;6285;48.804;9.220;2022-12-18T05:25:30;54.50;;;25.87;;
12441;SDS011;6285;48.804;9.220;2022-12-18T05:27:57;53.43;;;25.67;;
12441;SDS011;6285;48.804;9.220;2022-12-18T05:30:25;53.17;;;25.23;;
12441;SDS011;6285;48.804;9.220;2022-12-18T05:32:53;56.33;;;26.70;;
12441;SDS011;6285;48.804;9.220;2022-12-18T05:35:21;53.77;;;23.73;;
12441;SDS011;6285;48.804;9.220;2022-12-18T05:37:48;45.57;;;23.57;;
12441;SDS011;6285;48.804;9.220;2022-12-18T05:40:15;48.60;;;24.60;;
12441;SDS011;6285;48.804;9.220;2022-12-18T05:42:42;49.10;;;24.83;;
12441;SDS011;6285;48.804;9.220;2022-12-18T05:45:09;49.67;;;24.47;;
12441;SDS011;6285;48.804;9.220;2022-12-18T05:47:38;50.10;;;24.77;;
12441;SDS011;6285;48.804;9.220;2022-12-18T05:50:05;46.60;;;23.73;;
12441;SDS011;6285;48.804;9.220;2022-12-18T05:52:33;47.50;;;24.30;;
12441;SDS011;6285;48.804;9.220;2022-12-18T05:55:00;46.67;;;25.20;;
12441;SDS011;6285;48.804;9.220;2022-12-18T05:57:27;46.27;;;24.00;;
12441;SDS011;6285;48.804;9.220;2022-12-18T05:59:54;45.03;;;23.37;;
12441;SDS011;6285;48.804;9.220;2022-12-18T06:02:21;43.60;;;24.33;;
12441;SDS011;6285;48.804;9.220;2022-12-18T06:04:49;45.47;;;24.03;;
12441;SDS011;6285;48.804;9.220;2022-12-18T06:07:16;45.73;;;25.10;;
12441;SDS011;6285;48.804;9.220;2022-12-18T06:09:43;49.57;;;23.57;;
12441;SDS011;6285;48.804;9.220;2022-12-18T06:12:10;49.07;;;25.10;;
12441;SDS011;6285;48.804;9.220;2022-12-18T06:14:37;48.03;;;24.10;;
12441;SDS011;6285;48.804;9.220;2022-12-18T06:17:05;52.63;;;25.73;;
12441;SDS011;6285;48.804;9.220;2022-12-18T06:19:32;53.73;;;26.87;;
12441;SDS011;6285;48.804;9.220;2022-12-18T06:22:00;46.27;;;22.70;;
12441;SDS011;6285;48.804;9.220;2022-12-18T06:24:27;50.03;;;25.87;;
12441;SDS011;6285;48.804;9.220;2022-12-18T06:26:54;47.30;;;24.27;;
12441;SDS011;6285;48.804;9.220;2022-12-18T06:29:21;44.37;;;23.07;;
12441;SDS011;6285;48.804;9.220;2022-12-18T06:31:48;46.70;;;24.53;;
12441;SDS011;6285;48.804;9.220;2022-12-18T06:34:16;45.63;;;23.23;;
12441;SDS011;6285;48.804;9.220;2022-12-18T06:36:43;41.10;;;21.73;;
12441;SDS011;6285;48.804;9.220;2022-12-18T06:39:11;51.27;;;25.97;;
12441;SDS011;6285;48.804;9.220;2022-12-18T06:41:38;50.63;;;26.00;;
12441;SDS011;6285;48.804;9.220;2022-12-18T06:44:05;47.67;;;25.40;;
12441;SDS011;6285;48.804;9.220;2022-12-18T06:46:32;42.83;;;21.93;;
12441;SDS011;6285;48.804;9.220;2022-12-18T06:48:59;46.33;;;23.30;;
12441;SDS011;6285;48.804;9.220;2022-12-18T06:51:26;47.93;;;23.40;;
12441;SDS011;6285;48.804;9.220;2022-12-18T06:53:53;42.27;;;22.87;;
12441;SDS011;6285;48.804;9.220;2022-12-18T06:56:22;42.20;;;23.03;;
12441;SDS011;6285;48.804;9.220;2022-12-18T06:58:49;44.47;;;22.93;;
12441;SDS011;6285;48.804;9.220;2022-12-18T07:01:16;44.63;;;23.97;;
12441;SDS011;6285;48.804;9.220;2022-12-18T07:03:43;44.53;;;23.70;;
12441;SDS011;6285;48.804;9.220;2022-12-18T07:06:13;42.70;;;22.90;;
12441;SDS011;6285;48.804;9.220;2022-12-18T07:08:41;41.93;;;23.23;;
12441;SDS011;6285;48.804;9.220;2022-12-18T07:11:08;47.77;;;23.67;;
12441;SDS011;6285;48.804;9.220;2022-12-18T07:13:37;39.93;;;23.13;;
12441;SDS011;6285;48.804;9.220;2022-12-18T07:16:05;46.20;;;22.90;;
12441;SDS011;6285;48.804;9.220;2022-12-18T07:18:32;45.33;;;24.03;;
12441;SDS011;6285;48.804;9.220;2022-12-18T07:21:01;47.67;;;23.23;;
12441;SDS011;6285;48.804;9.220;2022-12-18T07:23:29;44.97;;;23.90;;
12441;SDS011;6285;48.804;9.220;2022-12-18T07:25:59;38.63;;;22.60;;
12441;SDS011;6285;48.804;9.220;2022-12-18T07:28:27;47.63;;;23.70;;
12441;SDS011;6285;48.804;9.220;2022-12-18T07:30:55;41.90;;;22.87;;
12441;SDS011;6285;48.804;9.220;2022-12-18T07:33:23;42.47;;;22.90;;
12441;SDS011;6285;48.804;9.220;2022-12-18T07:35:50;41.13;;;22.93;;
12441;SDS011;6285;48.804;9.220;2022-12-18T07:38:18;41.80;;;23.23;;
12441;SDS011;6285;48.804;9.220;2022-12-18T07:40:45;47.17;;;24.33;;
12441;SDS011;6285;48.804;9.220;2022-12-18T07:43:12;47.33;;;24.07;;
12441;SDS011;6285;48.804;9.220;2022-12-18T07:45:39;42.13;;;23.07;;
12441;SDS011;6285;48.804;9.220;2022-12-18T07:48:07;44.40;;;23.37;;
12441;SDS011;6285;48.804;9.220;2022-12-18T07:50:34;45.43;;;24.63;;
12441;SDS011;6285;48.804;9.220;2022-12-18T07:53:04;42.90;;;22.47;;
12441;SDS011;6285;48.804;9.220;2022-12-18T07:55:31;41.53;;;23.33;;
12441;SDS011;6285;48.804;9.220;2022-12-18T07:58:00;46.67;;;24.33;;
12441;SDS011;6285;48.804;9.220;2022-12-18T08:00:28;42.73;;;23.60;;
12441;SDS011;6285;48.804;9.220;2022-12-18T08:02:55;45.13;;;24.00;;
12441;SDS011;6285;48.804;9.220;2022-12-18T08:05:23;42.73;;;23.43;;
12441;SDS011;6285;48.804;9.220;2022-12-18T08:07:50;42.07;;;23.20;;
12441;SDS011;6285;48.804;9.220;2022-12-18T08:10:18;54.50;;;25.13;;
12441;SDS011;6285;48.804;9.220;2022-12-18T08:12:45;42.93;;;22.67;;
12441;SDS011;6285;48.804;9.220;2022-12-18T08:15:12;50.07;;;24.87;;
12441;SDS011;6285;48.804;9.220;2022-12-18T08:17:39;42.10;;;23.20;;
12441;SDS011;6285;48.804;9.220;2022-12-18T08:20:07;44.00;;;23.50;;
12441;SDS011;6285;48.804;9.220;2022-12-18T08:22:37;41.13;;;23.67;;
12441;SDS011;6285;48.804;9.220;2022-12-18T08:25:05;45.37;;;22.80;;
12441;SDS011;6285;48.804;9.220;2022-12-18T08:27:32;43.20;;;23.37;;
12441;SDS011;6285;48.804;9.220;2022-12-18T08:29:59;48.03;;;24.83;;
12441;SDS011;6285;48.804;9.220;2022-12-18T08:32:27;47.50;;;24.37;;
12441;SDS011;6285;48.804;9.220;2022-12-18T08:34:54;42.97;;;23.27;;
12441;SDS011;6285;48.804;9.220;2022-12-18T08:37:21;42.03;;;23.60;;
12441;SDS011;6285;48.804;9.220;2022-12-18T08:39:50;42.47;;;23.00;;
12441;SDS011;6285;48.804;9.220;2022-12-18T08:42:17;37.37;;;22.53;;
12441;SDS011;6285;48.804;9.220;2022-12-18T08:45:01;38.67;;;23.00;;
12441;SDS011;6285;48.804;9.220;2022-12-18T08:47:29;39.83;;;24.23;;
12441;SDS011;6285;48.804;9.220;2022-12-18T08:49:56;39.00;;;24.03;;
12441;SDS011;6285;48.804;9.220;2022-12-18T08:52:23;41.77;;;23.50;;
12441;SDS011;6285;48.804;9.220;2022-12-18T08:54:51;38.63;;;23.95;;
12441;SDS011;6285;48.804;9.220;2022-12-18T08:57:18;37.33;;;23.35;;
12441;SDS011;6285;48.804;9.220;2022-12-18T08:59:45;36.42;;;23.73;;
12441;SDS011;6285;48.804;9.220;2022-12-18T09:02:13;39.05;;;23.73;;
12441;SDS011;6285;48.804;9.220;2022-12-18T09:04:40;35.42;;;23.25;;
12441;SDS011;6285;48.804;9.220;2022-12-18T09:07:07;37.05;;;23.27;;
12441;SDS011;6285;48.804;9.220;2022-12-18T09:09:35;37.63;;;24.10;;
12441;SDS011;6285;48.804;9.220;2022-12-18T09:12:04;38.60;;;23.88;;
12441;SDS011;6285;48.804;9.220;2022-12-18T09:14:31;38.47;;;24.25;;
12441;SDS011;6285;48.804;9.220;2022-12-18T09:16:58;39.20;;;24.88;;
12441;SDS011;6285;48.804;9.220;2022-12-18T09:19:25;38.95;;;24.08;;
12441;SDS011;6285;48.804;9.220;2022-12-18T09:21:52;36.78;;;23.67;;
12441;SDS011;6285;48.804;9.220;2022-12-18T09:24:22;37.70;;;24.23;;
12441;SDS011;6285;48.804;9.220;2022-12-18T09:26:52;40.33;;;25.40;;
12441;SDS011;6285;48.804;9.220;2022-12-18T09:29:20;37.83;;;23.77;;
12441;SDS011;6285;48.804;9.220;2022-12-18T09:31:47;36.95;;;23.65;;
12441;SDS011;6285;48.804;9.220;2022-12-18T09:34:15;38.22;;;23.75;;
12441;SDS011;6285;48.804;9.220;2022-12-18T09:36:43;38.40;;;25.38;;
12441;SDS011;6285;48.804;9.220;2022-12-18T09:39:10;42.22;;;25.45;;
12441;SDS011;6285;48.804;9.220;2022-12-18T09:41:41;37.30;;;23.77;;
12441;SDS011;6285;48.804;9.220;2022-12-18T09:44:11;40.35;;;24.80;;
12441;SDS011;6285;48.804;9.220;2022-12-18T09:46:43;38.65;;;26.50;;
12441;SDS011;6285;48.804;9.220;2022-12-18T09:49:11;37.17;;;24.17;;
12441;SDS011;6285;48.804;9.220;2022-12-18T09:51:39;39.55;;;26.42;;
12441;SDS011;6285;48.804;9.220;2022-12-18T09:54:11;35.83;;;25.63;;
12441;SDS011;6285;48.804;9.220;2022-12-18T09:56:40;38.05;;;26.33;;
12441;SDS011;6285;48.804;9.220;2022-12-18T09:59:13;41.63;;;25.50;;
12441;SDS011;6285;48.804;9.220;2022-12-18T10:01:43;38.17;;;25.00;;
12441;SDS011;6285;48.804;9.220;2022-12-18T10:04:10;39.10;;;26.48;;
12441;SDS011;6285;48.804;9.220;2022-12-18T10:06:39;36.13;;;25.98;;
12441;SDS011;6285;48.804;9.220;2022-12-18T10:09:09;42.10;;;27.38;;
12441;SDS011;6285;48.804;9.220;2022-12-18T10:11:43;37.65;;;25.55;;
12441;SDS011;6285;48.804;9.220;2022-12-18T10:14:14;37.22;;;25.05;;
12441;SDS011;6285;48.804;9.220;2022-12-18T10:16:50;36.60;;;25.75;;
12441;SDS011;6285;48.804;9.220;2022-12-18T10:19:24;38.10;;;24.55;;
12441;SDS011;6285;48.804;9.220;2022-12-18T10:21:56;36.47;;;23.70;;
12441;SDS011;6285;48.804;9.220;2022-12-18T10:24:26;39.30;;;24.35;;
12441;SDS011;6285;48.804;9.220;2022-12-18T10:26:55;36.10;;;23.88;;
12441;SDS011;6285;48.804;9.220;2022-12-18T10:29:24;34.95;;;23.92;;
12441;SDS011;6285;48.804;9.220;2022-12-18T10:31:53;37.00;;;24.05;;
12441;SDS011;6285;48.804;9.220;2022-12-18T10:34:20;36.22;;;24.25;;
12441;SDS011;6285;48.804;9.220;2022-12-18T10:36:47;32.35;;;23.48;;
12441;SDS011;6285;48.804;9.220;2022-12-18T10:39:15;35.90;;;24.73;;
12441;SDS011;6285;48.804;9.220;2022-12-18T10:41:42;35.65;;;23.10;;
12441;SDS011;6285;48.804;9.220;2022-12-18T10:44:11;34.40;;;22.58;;
12441;SDS011;6285;48.804;9.220;2022-12-18T10:46:38;35.75;;;24.05;;
12441;SDS011;6285;48.804;9.220;2022-12-18T10:49:17;34.22;;;23.75;;
12441;SDS011;6285;48.804;9.220;2022-12-18T10:51:44;34.45;;;22.45;;
12441;SDS011;6285;48.804;9.220;2022-12-18T10:54:13;35.80;;;23.13;;
12441;SDS011;6285;48.804;9.220;2022-12-18T10:56:41;33.70;;;22.42;;
12441;SDS011;6285;48.804;9.220;2022-12-18T10:59:09;34.97;;;23.33;;
12441;SDS011;6285;48.804;9.220;2022-12-18T11:01:50;39.30;;;23.77;;
12441;SDS011;6285;48.804;9.220;2022-12-18T11:04:20;36.83;;;22.98;;
12441;SDS011;6285;48.804;9.220;2022-12-18T11:06:54;40.88;;;23.70;;
12441;SDS011;6285;48.804;9.220;2022-12-18T11:09:22;39.00;;;24.55;;
12441;SDS011;6285;48.804;9.220;2022-12-18T11:11:49;40.22;;;23.52;;
12441;SDS011;6285;48.804;9.220;2022-12-18T11:14:20;36.88;;;22.88;;
12441;SDS011;6285;48.804;9.220;2022-12-18T11:16:48;37.67;;;22.45;;
12441;SDS011;6285;48.804;9.220;2022-12-18T11:19:23;39.10;;;22.73;;
12441;SDS011;6285;48.804;9.220;2022-12-18T11:21:51;38.13;;;22.33;;
12441;SDS011;6285;48.804;9.220;2022-12-18T11:24:19;37.17;;;22.42;;
12441;SDS011;6285;48.804;9.220;2022-12-18T11:26:47;36.70;;;22.10;;
12441;SDS011;6285;48.804;9.220;2022-12-18T11:29:16;36.53;;;21.87;;
12441;SDS011;6285;48.804;9.220;2022-12-18T11:31:43;37.37;;;21.90;;
12441;SDS011;6285;48.804;9.220;2022-12-18T11:34:11;39.57;;;23.07;;
12441;SDS011;6285;48.804;9.220;2022-12-18T11:36:42;41.23;;;24.10;;
12441;SDS011;6285;48.804;9.220;2022-12-18T11:39:12;37.60;;;21.38;;
12441;SDS011;6285;48.804;9.220;2022-12-18T11:41:41;36.70;;;20.83;;
12441;SDS011;6285;48.804;9.220;2022-12-18T11:44:35;41.58;;;23.25;;
12441;SDS011;6285;48.804;9.220;2022-12-18T11:47:03;40.10;;;23.20;;
12441;SDS011;6285;48.804;9.220;2022-12-18T11:49:34;41.25;;;23.02;;
12441;SDS011;6285;48.804;9.220;2022-12-18T11:52:08;44.40;;;24.80;;
12441;SDS011;6285;48.804;9.220;2022-12-18T11:54:36;49.13;;;26.73;;
12441;SDS011;6285;48.804;9.220;2022-12-18T11:57:05;42.42;;;25.08;;
12441;SDS011;6285;48.804;9.220;2022-12-18T11:59:37;43.35;;;25.63;;
12441;SDS011;6285;48.804;9.220;2022-12-18T12:02:17;42.95;;;24.75;;
12441;SDS011;6285;48.804;9.220;2022-12-18T12:05:00;41.57;;;24.10;;
12441;SDS011;6285;48.804;9.220;2022-12-18T12:07:36;42.60;;;24.50;;
12441;SDS011;6285;48.804;9.220;2022-12-18T12:10:09;55.43;;;29.90;;
12441;SDS011;6285;48.804;9.220;2022-12-18T12:12:45;47.10;;;26.25;;
12441;SDS011;6285;48.804;9.220;2022-12-18T12:15:28;46.50;;;25.73;;
12441;SDS011;6285;48.804;9.220;2022-12-18T12:17:58;44.43;;;24.07;;
12441;SDS011;6285;48.804;9.220;2022-12-18T12:20:31;42.40;;;23.97;;
12441;SDS011;6285;48.804;9.220;2022-12-18T12:23:05;47.30;;;25.10;;
12441;SDS011;6285;48.804;9.220;2022-12-18T12:25:33;47.33;;;24.93;;
12441;SDS011;6285;48.804;9.220;2022-12-18T12:28:13;44.08;;;25.38;;
12441;SDS011;6285;48.804;9.220;2022-12-18T12:30:44;46.97;;;25.33;;
12441;SDS011;6285;48.804;9.220;2022-12-18T12:33:16;48.07;;;25.63;;
12441;SDS011;6285;48.804;9.220;2022-12-18T12:35:46;43.33;;;25.60;;
12441;SDS011;6285;48.804;9.220;2022-12-18T12:38:17;41.08;;;24.17;;
12441;SDS011;6285;48.804;9.220;2022-12-18T12:40:48;45.80;;;24.77;;
12441;SDS011;6285;48.804;9.220;2022-12-18T12:43:20;43.75;;;24.50;;
12441;SDS011;6285;48.804;9.220;2022-12-18T12:45:48;44.33;;;25.83;;
12441;SDS011;6285;48.804;9.220;2022-12-18T12:48:17;44.17;;;25.05;;
12441;SDS011;6285;48.804;9.220;2022-12-18T12:50:45;44.70;;;24.75;;
12441;SDS011;6285;48.804;9.220;2022-12-18T12:53:15;45.37;;;24.23;;
12441;SDS011;6285;48.804;9.220;2022-12-18T12:55:45;42.15;;;23.17;;
12441;SDS011;6285;48.804;9.220;2022-12-18T12:58:14;41.17;;;22.52;;
12441;SDS011;6285;48.804;9.220;2022-12-18T13:00:44;44.90;;;25.57;;
12441;SDS011;6285;48.804;9.220;2022-12-18T13:03:15;41.95;;;24.95;;
12441;SDS011;6285;48.804;9.220;2022-12-18T13:05:48;44.15;;;25.13;;
12441;SDS011;6285;48.804;9.220;2022-12-18T13:08:22;44.22;;;26.05;;
12441;SDS011;6285;48.804;9.220;2022-12-18T13:10:52;44.72;;;25.02;;
12441;SDS011;6285;48.804;9.220;2022-12-18T13:13:49;43.17;;;25.23;;
12441;SDS011;6285;48.804;9.220;2022-12-18T13:16:17;43.65;;;23.40;;
12441;SDS011;6285;48.804;9.220;2022-12-18T13:18:48;44.42;;;23.77;;
12441;SDS011;6285;48.804;9.220;2022-12-18T13:21:18;44.38;;;25.13;;
12441;SDS011;6285;48.804;9.220;2022-12-18T13:23:48;45.05;;;24.90;;
12441;SDS011;6285;48.804;9.220;2022-12-18T13:26:29;41.63;;;23.15;;
12441;SDS011;6285;48.804;9.220;2022-12-18T13:28:58;44.30;;;23.80;;
12441;SDS011;6285;48.804;9.220;2022-12-18T13:34:14;43.03;;;23.75;;
12441;SDS011;6285;48.804;9.220;2022-12-18T13:36:43;40.72;;;23.48;;
12441;SDS011;6285;48.804;9.220;2022-12-18T13:39:15;42.60;;;23.23;;
12441;SDS011;6285;48.804;9.220;2022-12-18T13:41:49;36.38;;;21.75;;
12441;SDS011;6285;48.804;9.220;2022-12-18T13:44:23;37.33;;;21.45;;
12441;SDS011;6285;48.804;9.220;2022-12-18T13:46:51;38.88;;;22.40;;
12441;SDS011;6285;48.804;9.220;2022-12-18T13:49:20;39.88;;;23.20;;
12441;SDS011;6285;48.804;9.220;2022-12-18T13:51:49;39.45;;;22.63;;
12441;SDS011;6285;48.804;9.220;2022-12-18T13:54:18;40.90;;;24.23;;
12441;SDS011;6285;48.804;9.220;2022-12-18T13:56:46;42.25;;;24.90;;
12441;SDS011;6285;48.804;9.220;2022-12-18T13:59:16;43.42;;;24.13;;
12441;SDS011;6285;48.804;9.220;2022-12-18T14:01:45;44.05;;;24.90;;
12441;SDS011;6285;48.804;9.220;2022-12-18T14:04:16;44.85;;;25.63;;
12441;SDS011;6285;48.804;9.220;2022-12-18T14:06:46;43.83;;;23.52;;
12441;SDS011;6285;48.804;9.220;2022-12-18T14:09:14;45.88;;;24.27;;
12441;SDS011;6285;48.804;9.220;2022-12-18T14:11:45;42.42;;;24.30;;
12441;SDS011;6285;48.804;9.220;2022-12-18T14:14:13;44.10;;;24.17;;
12441;SDS011;6285;48.804;9.220;2022-12-18T14:16:42;42.30;;;25.15;;
12441;SDS011;6285;48.804;9.220;2022-12-18T14:19:10;45.00;;;24.38;;
12441;SDS011;6285;48.804;9.220;2022-12-18T14:21:39;41.42;;;24.08;;
12441;SDS011;6285;48.804;9.220;2022-12-18T14:24:11;45.03;;;25.38;;
12441;SDS011;6285;48.804;9.220;2022-12-18T14:26:39;42.60;;;24.80;;
12441;SDS011;6285;48.804;9.220;2022-12-18T14:29:18;43.80;;;25.10;;
12441;SDS011;6285;48.804;9.220;2022-12-18T14:31:50;41.13;;;24.33;;
12441;SDS011;6285;48.804;9.220;2022-12-18T14:34:30;44.67;;;24.98;;
12441;SDS011;6285;48.804;9.220;2022-12-18T14:36:57;48.90;;;26.80;;
12441;SDS011;6285;48.804;9.220;2022-12-18T14:39:24;47.55;;;24.90;;
12441;SDS011;6285;48.804;9.220;2022-12-18T14:41:51;47.17;;;24.88;;
12441;SDS011;6285;48.804;9.220;2022-12-18T14:44:18;47.38;;;25.38;;
12441;SDS011;6285;48.804;9.220;2022-12-18T14:46:48;48.67;;;26.53;;
12441;SDS011;6285;48.804;9.220;2022-12-18T14:49:18;46.00;;;25.98;;
12441;SDS011;6285;48.804;9.220;2022-12-18T14:51:47;48.17;;;25.73;;